Time;durP1;ratioP1;P1;durP2;ratioP2;P2;SDS_P1;SDS_P2;PMS_P1;PMS_P2;Temp;Humidity;BMP_temperature;BMP_pressure;BME280_temperature;BME280_humidity;BME280_pressure;Samples;Min_cycle;Max_cycle;Signal;HPM_P1;HPM_P2
2023/08/02 00:00:23;;;;;;;5.30;0.88;;;;;;;;;;5114513;28;20047;-85
2023/08/02 00:02:49;;;;;;;5.50;1.50;;;;;;;;;;5114682;28;20039;-86
2023/08/02 00:05:15;;;;;;;5.85;1.77;;;;;;;;;;5115346;28;20048;-85
2023/08/02 00:07:41;;;;;;;5.50;1.70;;;;;;;;;;5115031;28;20472;-86
2023/08/02 00:10:07;;;;;;;4.70;1.60;;;;;;;;;;5114187;28;20135;-86
2023/08/02 00:12:34;;;;;;;11.63;2.60;;;;;;;;;;5114344;28;20058;-86
2023/08/02 00:15:00;;;;;;;7.20;2.28;;;;;;;;;;5113843;28;20089;-86
2023/08/02 00:17:26;;;;;;;6.25;1.67;;;;;;;;;;5097429;28;20405;-86
2023/08/02 00:19:52;;;;;;;6.78;2.28;;;;;;;;;;5115015;28;20131;-86
2023/08/02 00:22:18;;;;;;;5.85;1.45;;;;;;;;;;5115166;28;20051;-86
2023/08/02 00:24:44;;;;;;;6.10;1.35;;;;;;;;;;5114236;28;20044;-86
2023/08/02 00:27:10;;;;;;;8.25;1.75;;;;;;;;;;5114525;28;20053;-86
2023/08/02 00:29:36;;;;;;;4.03;1.52;;;;;;;;;;5114422;28;20047;-86
2023/08/02 00:32:02;;;;;;;6.22;2.20;;;;;;;;;;5113841;28;20126;-86
2023/08/02 00:34:28;;;;;;;8.27;2.03;;;;;;;;;;5114604;28;20044;-86
2023/08/02 00:36:54;;;;;;;9.48;2.33;;;;;;;;;;5114568;28;20044;-86
2023/08/02 00:39:20;;;;;;;9.98;2.35;;;;;;;;;;5113223;28;20132;-86
2023/08/02 00:41:46;;;;;;;8.73;3.05;;;;;;;;;;5113768;28;20082;-86
2023/08/02 00:44:13;;;;;;;8.25;2.10;;;;;;;;;;5113839;28;20495;-86
2023/08/02 00:46:39;;;;;;;10.50;2.33;;;;;;;;;;5115765;28;20044;-86
2023/08/02 00:49:05;;;;;;;8.80;2.30;;;;;;;;;;5115238;28;20043;-86
2023/08/02 00:51:33;;;;;;;6.18;1.77;;;;;;;;;;5113549;28;20545;-86
2023/08/02 00:54:02;;;;;;;8.68;1.73;;;;;;;;;;5114769;28;20044;-86
2023/08/02 00:56:31;;;;;;;4.80;1.80;;;;;;;;;;5096401;28;20500;-86
2023/08/02 00:58:58;;;;;;;7.38;1.88;;;;;;;;;;5114321;28;20054;-86
2023/08/02 01:01:24;;;;;;;7.43;1.70;;;;;;;;;;5114512;28;20058;-86
2023/08/02 01:03:51;;;;;;;7.60;2.03;;;;;;;;;;5118584;28;20087;-86
2023/08/02 01:06:20;;;;;;;4.15;1.80;;;;;;;;;;5119426;28;20047;-86
2023/08/02 01:08:49;;;;;;;4.03;1.40;;;;;;;;;;5118390;28;20092;-86
2023/08/02 01:11:18;;;;;;;8.63;1.98;;;;;;;;;;5118717;28;20043;-86
2023/08/02 01:13:48;;;;;;;6.22;2.00;;;;;;;;;;5118737;28;20048;-86
2023/08/02 01:16:14;;;;;;;7.68;2.45;;;;;;;;;;5100157;28;20062;-86
2023/08/02 01:18:40;;;;;;;5.78;2.47;;;;;;;;;;5118074;28;20047;-85
2023/08/02 01:21:07;;;;;;;7.60;2.28;;;;;;;;;;5116888;28;20044;-85
2023/08/02 01:23:33;;;;;;;9.02;2.25;;;;;;;;;;5117915;28;20127;-85
2023/08/02 01:26:01;;;;;;;6.38;1.45;;;;;;;;;;5117994;28;20054;-86
2023/08/02 01:28:28;;;;;;;5.22;1.50;;;;;;;;;;5118243;28;20044;-86
2023/08/02 01:30:54;;;;;;;6.45;1.67;;;;;;;;;;5100231;28;20164;-86
2023/08/02 01:33:21;;;;;;;5.75;1.38;;;;;;;;;;5117657;28;20134;-85
2023/08/02 01:35:48;;;;;;;8.45;2.33;;;;;;;;;;5117118;28;20464;-85
2023/08/02 01:38:14;;;;;;;14.48;1.92;;;;;;;;;;5116845;28;20118;-85
2023/08/02 01:40:40;;;;;;;10.07;1.70;;;;;;;;;;5117869;28;20047;-86
2023/08/02 01:43:07;;;;;;;9.10;1.90;;;;;;;;;;5117540;28;20047;-85
2023/08/02 01:45:33;;;;;;;10.88;1.80;;;;;;;;;;5116757;28;20097;-85
2023/08/02 01:48:01;;;;;;;7.90;2.38;;;;;;;;;;5099835;28;20044;-85
2023/08/02 01:50:27;;;;;;;11.70;2.40;;;;;;;;;;5116579;28;20122;-86
2023/08/02 01:52:53;;;;;;;10.98;2.08;;;;;;;;;;5116574;28;20059;-85
2023/08/02 01:55:20;;;;;;;11.75;2.15;;;;;;;;;;5117584;28;20047;-85
2023/08/02 01:57:46;;;;;;;8.32;2.20;;;;;;;;;;5118191;28;20375;-86
2023/08/02 02:00:13;;;;;;;5.95;2.50;;;;;;;;;;5117576;28;20040;-86
2023/08/02 02:02:39;;;;;;;6.10;2.63;;;;;;;;;;5099731;28;20443;-86
2023/08/02 02:05:06;;;;;;;11.23;2.47;;;;;;;;;;5116782;28;20070;-86
2023/08/02 02:07:32;;;;;;;6.53;2.20;;;;;;;;;;5117213;28;20489;-85
2023/08/02 02:09:58;;;;;;;9.20;2.25;;;;;;;;;;5116235;28;20090;-86
2023/08/02 02:12:24;;;;;;;10.50;3.15;;;;;;;;;;5116817;28;20104;-85
2023/08/02 02:14:50;;;;;;;9.75;2.45;;;;;;;;;;5115839;28;20082;-86
2023/08/02 02:17:17;;;;;;;10.13;2.40;;;;;;;;;;5117228;28;20047;-87
2023/08/02 02:19:43;;;;;;;12.65;2.92;;;;;;;;;;5117015;28;20079;-85
2023/08/02 02:22:09;;;;;;;11.00;2.38;;;;;;;;;;5116855;28;20047;-86
2023/08/02 02:24:35;;;;;;;9.90;2.40;;;;;;;;;;5100300;28;20095;-86
2023/08/02 02:27:01;;;;;;;9.20;2.42;;;;;;;;;;5116225;28;20050;-86
2023/08/02 02:29:27;;;;;;;9.02;2.35;;;;;;;;;;5116183;28;20512;-86
2023/08/02 02:31:53;;;;;;;15.02;2.50;;;;;;;;;;5115756;28;20044;-86
2023/08/02 02:34:20;;;;;;;10.35;1.95;;;;;;;;;;5116991;28;20051;-86
2023/08/02 02:36:46;;;;;;;7.88;2.28;;;;;;;;;;5116384;28;20055;-87
2023/08/02 02:39:12;;;;;;;5.97;2.03;;;;;;;;;;5098397;28;20087;-86
2023/08/02 02:41:38;;;;;;;7.60;1.70;;;;;;;;;;5116297;28;20390;-87
2023/08/02 02:44:04;;;;;;;7.90;2.35;;;;;;;;;;5099241;28;20058;-86
2023/08/02 02:46:31;;;;;;;8.63;2.90;;;;;;;;;;5098779;28;20055;-84
2023/08/02 02:48:57;;;;;;;10.13;3.05;;;;;;;;;;5115409;28;20069;-86
2023/08/02 02:51:23;;;;;;;8.05;3.17;;;;;;;;;;5116857;28;20112;-86
2023/08/02 02:53:49;;;;;;;8.85;3.92;;;;;;;;;;5116596;28;20058;-86
2023/08/02 02:56:15;;;;;;;5.88;2.78;;;;;;;;;;5098842;28;20134;-87
2023/08/02 02:58:41;;;;;;;12.10;3.30;;;;;;;;;;5115689;28;20489;-87
2023/08/02 03:01:08;;;;;;;12.10;3.50;;;;;;;;;;5115292;28;20401;-86
2023/08/02 03:03:35;;;;;;;12.02;3.42;;;;;;;;;;5115555;28;20052;-86
2023/08/02 03:06:01;;;;;;;9.07;2.80;;;;;;;;;;5115186;28;20055;-86
2023/08/02 03:08:27;;;;;;;13.07;3.53;;;;;;;;;;5115708;28;20070;-86
2023/08/02 03:10:53;;;;;;;10.20;3.15;;;;;;;;;;5099039;28;20083;-86
2023/08/02 03:13:19;;;;;;;9.45;4.03;;;;;;;;;;5117213;28;20050;-86
2023/08/02 03:15:46;;;;;;;11.35;3.42;;;;;;;;;;5098661;28;20206;-86
2023/08/02 03:18:12;;;;;;;11.85;4.30;;;;;;;;;;5099092;28;20088;-87
2023/08/02 03:20:39;;;;;;;11.13;3.55;;;;;;;;;;5115668;28;20103;-86
2023/08/02 03:23:05;;;;;;;12.10;4.22;;;;;;;;;;5117651;28;20051;-86
2023/08/02 03:25:31;;;;;;;9.38;3.47;;;;;;;;;;5113277;28;20040;-86
2023/08/02 03:27:57;;;;;;;8.88;3.75;;;;;;;;;;5115199;28;20082;-86
2023/08/02 03:30:23;;;;;;;10.60;4.57;;;;;;;;;;5115567;28;20043;-86
2023/08/02 03:32:50;;;;;;;10.20;3.45;;;;;;;;;;5098041;28;20044;-86
2023/08/02 03:35:16;;;;;;;8.00;3.95;;;;;;;;;;5098174;28;20059;-86
2023/08/02 03:37:42;;;;;;;11.05;3.70;;;;;;;;;;5114646;28;20067;-86
2023/08/02 03:40:08;;;;;;;11.05;3.67;;;;;;;;;;5114892;28;20047;-86
2023/08/02 03:42:34;;;;;;;7.90;3.83;;;;;;;;;;5115802;28;20043;-86
2023/08/02 03:45:01;;;;;;;7.07;3.05;;;;;;;;;;5115985;28;20051;-86
2023/08/02 03:47:27;;;;;;;5.20;2.50;;;;;;;;;;5097471;28;20051;-87
2023/08/02 03:49:53;;;;;;;6.60;3.42;;;;;;;;;;5115222;28;20134;-86
2023/08/02 03:52:20;;;;;;;6.85;2.80;;;;;;;;;;5114897;28;20084;-86
2023/08/02 03:54:47;;;;;;;6.32;2.63;;;;;;;;;;5114957;28;20060;-86
2023/08/02 03:57:20;;;;;;;9.20;2.92;;;;;;;;;;5092589;27;20446;-87
2023/08/02 03:59:46;;;;;;;5.55;3.03;;;;;;;;;;5091591;28;20110;-87
2023/08/02 04:02:12;;;;;;;9.40;3.33;;;;;;;;;;5074086;28;20475;-87
2023/08/02 04:04:38;;;;;;;10.80;4.57;;;;;;;;;;5091183;28;20073;-87
2023/08/02 04:07:05;;;;;;;8.73;4.40;;;;;;;;;;5125004;28;20480;-87
2023/08/02 04:09:31;;;;;;;11.55;4.57;;;;;;;;;;5091763;28;20049;-86
2023/08/02 04:11:57;;;;;;;7.40;4.25;;;;;;;;;;5073906;28;20504;-86
2023/08/02 04:14:23;;;;;;;11.98;4.72;;;;;;;;;;5090776;28;20059;-86
2023/08/02 04:16:49;;;;;;;11.10;3.72;;;;;;;;;;5090377;28;20041;-86
2023/08/02 04:19:15;;;;;;;7.47;3.35;;;;;;;;;;5091624;28;20101;-87
2023/08/02 04:21:41;;;;;;;6.20;3.88;;;;;;;;;;5090484;28;20404;-87
2023/08/02 04:24:07;;;;;;;4.80;3.22;;;;;;;;;;5090706;28;20040;-87
2023/08/02 04:26:33;;;;;;;5.88;3.47;;;;;;;;;;5091493;28;20131;-86
2023/08/02 04:28:59;;;;;;;9.20;3.65;;;;;;;;;;5090669;28;20421;-87
2023/08/02 04:31:25;;;;;;;7.95;4.00;;;;;;;;;;5091590;28;20040;-87
2023/08/02 04:33:51;;;;;;;4.72;3.67;;;;;;;;;;5090315;28;20048;-87
2023/08/02 04:36:18;;;;;;;9.05;5.00;;;;;;;;;;5090184;28;20098;-87
2023/08/02 04:38:44;;;;;;;9.45;5.20;;;;;;;;;;5090516;28;20090;-87
2023/08/02 04:41:15;;;;;;;7.65;5.45;;;;;;;;;;5089735;28;20058;-87
2023/08/02 04:43:41;;;;;;;8.70;5.10;;;;;;;;;;5090767;28;20119;-87
2023/08/02 04:46:07;;;;;;;7.60;4.03;;;;;;;;;;5089748;28;20067;-87
2023/08/02 04:48:33;;;;;;;5.78;2.97;;;;;;;;;;5089973;28;20090;-87
2023/08/02 04:50:59;;;;;;;7.07;3.45;;;;;;;;;;5090185;28;20101;-85
2023/08/02 04:53:25;;;;;;;7.20;3.58;;;;;;;;;;5089602;28;20470;-86
2023/08/02 04:55:51;;;;;;;4.25;2.63;;;;;;;;;;5072515;28;20052;-86
2023/08/02 04:58:17;;;;;;;7.88;2.53;;;;;;;;;;5089664;28;20044;-86
2023/08/02 05:00:44;;;;;;;7.55;2.60;;;;;;;;;;5073152;28;20436;-85
2023/08/02 05:03:10;;;;;;;7.35;3.20;;;;;;;;;;5072581;28;20053;-86
2023/08/02 05:05:36;;;;;;;8.63;3.35;;;;;;;;;;5090974;28;20048;-86
2023/08/02 05:08:02;;;;;;;7.13;2.92;;;;;;;;;;5079477;28;20048;-84
2023/08/02 05:10:28;;;;;;;6.68;3.22;;;;;;;;;;5076941;28;20045;-86
2023/08/02 05:12:54;;;;;;;4.47;2.25;;;;;;;;;;5075833;28;20388;-86
2023/08/02 05:15:20;;;;;;;5.30;2.60;;;;;;;;;;5076806;28;20043;-86
2023/08/02 05:17:47;;;;;;;5.43;2.08;;;;;;;;;;5042842;28;20052;-86
2023/08/02 05:20:13;;;;;;;4.85;2.30;;;;;;;;;;5076654;28;20170;-86
2023/08/02 05:22:39;;;;;;;4.85;2.72;;;;;;;;;;5076362;28;20044;-86
2023/08/02 05:25:05;;;;;;;8.10;2.60;;;;;;;;;;5075664;28;20044;-86
2023/08/02 05:27:31;;;;;;;4.75;2.72;;;;;;;;;;5058904;28;20040;-86
2023/08/02 05:29:57;;;;;;;6.20;2.90;;;;;;;;;;5076546;28;20052;-87
2023/08/02 05:32:23;;;;;;;7.38;2.92;;;;;;;;;;5075055;28;20040;-86
2023/08/02 05:34:49;;;;;;;5.63;2.50;;;;;;;;;;5075505;28;20135;-86
2023/08/02 05:37:17;;;;;;;6.75;3.25;;;;;;;;;;5074744;28;20074;-86
2023/08/02 05:39:43;;;;;;;7.32;3.70;;;;;;;;;;5076446;28;20063;-86
2023/08/02 05:42:09;;;;;;;9.00;3.55;;;;;;;;;;5076675;28;20052;-86
2023/08/02 05:44:36;;;;;;;7.15;2.67;;;;;;;;;;5075004;28;20048;-86
2023/08/02 05:47:02;;;;;;;5.07;2.70;;;;;;;;;;5042707;28;20080;-85
2023/08/02 05:49:28;;;;;;;7.40;2.78;;;;;;;;;;5058623;28;20086;-86
2023/08/02 05:51:55;;;;;;;5.57;2.78;;;;;;;;;;5058499;28;20059;-86
2023/08/02 05:54:21;;;;;;;5.30;2.55;;;;;;;;;;5074936;28;20056;-86
2023/08/02 05:56:47;;;;;;;9.07;2.80;;;;;;;;;;5075992;28;20060;-86
2023/08/02 05:59:13;;;;;;;7.68;3.17;;;;;;;;;;5076549;28;20408;-86
2023/08/02 06:01:39;;;;;;;6.22;2.50;;;;;;;;;;5074518;28;20048;-86
2023/08/02 06:04:05;;;;;;;5.40;2.40;;;;;;;;;;5076074;28;20071;-86
2023/08/02 06:06:32;;;;;;;6.10;2.25;;;;;;;;;;5074974;28;20049;-86
2023/08/02 06:08:58;;;;;;;5.97;2.42;;;;;;;;;;5058591;28;20169;-86
2023/08/02 06:11:24;;;;;;;5.93;2.13;;;;;;;;;;5074648;28;20048;-87
2023/08/02 06:13:50;;;;;;;8.63;2.75;;;;;;;;;;5075259;28;20041;-86
2023/08/02 06:16:16;;;;;;;5.25;2.33;;;;;;;;;;5057939;28;20070;-83
2023/08/02 06:18:42;;;;;;;7.03;2.70;;;;;;;;;;5057186;28;20137;-84
2023/08/02 06:21:09;;;;;;;5.57;2.10;;;;;;;;;;5074687;28;20400;-87
2023/08/02 06:23:35;;;;;;;4.22;2.20;;;;;;;;;;5074909;28;20048;-86
2023/08/02 06:26:01;;;;;;;4.72;2.58;;;;;;;;;;5041348;28;20140;-87
2023/08/02 06:28:27;;;;;;;5.28;1.88;;;;;;;;;;5074229;28;20048;-87
2023/08/02 06:30:53;;;;;;;8.57;2.53;;;;;;;;;;5074564;28;20048;-87
2023/08/02 06:33:19;;;;;;;5.82;2.40;;;;;;;;;;5075316;28;20055;-87
2023/08/02 06:35:50;;;;;;;5.28;1.92;;;;;;;;;;5075663;28;20133;-87
2023/08/02 06:38:16;;;;;;;3.92;2.13;;;;;;;;;;5074687;28;20044;-87
2023/08/02 06:40:42;;;;;;;6.13;2.40;;;;;;;;;;5057944;28;20083;-87
2023/08/02 06:43:08;;;;;;;4.93;2.17;;;;;;;;;;5075743;28;20048;-87
2023/08/02 06:45:34;;;;;;;5.90;2.20;;;;;;;;;;5057906;28;20123;-87
2023/08/02 06:48:00;;;;;;;3.97;1.75;;;;;;;;;;5057815;28;20503;-87
2023/08/02 06:50:26;;;;;;;4.05;1.67;;;;;;;;;;5076087;28;20434;-86
2023/08/02 06:52:53;;;;;;;5.72;1.60;;;;;;;;;;5057432;28;20052;-86
2023/08/02 06:55:19;;;;;;;2.90;1.50;;;;;;;;;;5074579;28;20118;-86
2023/08/02 06:57:45;;;;;;;3.90;1.80;;;;;;;;;;5074886;28;20063;-86
2023/08/02 07:00:11;;;;;;;3.85;2.10;;;;;;;;;;5074386;28;20053;-87
2023/08/02 07:02:38;;;;;;;3.67;1.83;;;;;;;;;;5074742;28;20130;-87
2023/08/02 07:05:04;;;;;;;6.25;2.10;;;;;;;;;;5057639;28;20067;-86
2023/08/02 07:07:30;;;;;;;3.33;1.40;;;;;;;;;;5074016;28;20055;-87
2023/08/02 07:09:56;;;;;;;5.68;1.25;;;;;;;;;;5057581;28;20087;-87
2023/08/02 07:12:22;;;;;;;2.75;1.00;;;;;;;;;;5074121;28;20048;-87
2023/08/02 07:14:48;;;;;;;3.08;1.10;;;;;;;;;;5075191;28;20040;-87
2023/08/02 07:17:14;;;;;;;6.75;1.05;;;;;;;;;;5073877;28;20041;-87
2023/08/02 07:19:40;;;;;;;3.97;1.10;;;;;;;;;;5074051;28;20130;-87
2023/08/02 07:22:07;;;;;;;3.13;1.00;;;;;;;;;;5074246;28;20052;-87
2023/08/02 07:24:33;;;;;;;3.05;0.65;;;;;;;;;;5074093;28;20052;-87
2023/08/02 07:26:59;;;;;;;5.47;1.30;;;;;;;;;;5057197;28;20486;-87
2023/08/02 07:29:25;;;;;;;4.55;1.60;;;;;;;;;;5057027;28;20052;-87
2023/08/02 07:31:51;;;;;;;3.40;1.25;;;;;;;;;;5074234;28;20081;-87
2023/08/02 07:34:17;;;;;;;3.60;1.45;;;;;;;;;;5074839;28;20052;-87
2023/08/02 07:36:43;;;;;;;2.80;1.38;;;;;;;;;;5057234;28;20043;-87
2023/08/02 07:39:12;;;;;;;3.33;1.20;;;;;;;;;;5074000;28;20173;-87
2023/08/02 07:41:38;;;;;;;4.65;1.48;;;;;;;;;;5075260;28;20040;-88
2023/08/02 07:44:04;;;;;;;5.55;1.42;;;;;;;;;;5073907;28;20040;-86
2023/08/02 07:46:30;;;;;;;5.38;1.40;;;;;;;;;;5074880;28;20043;-84
2023/08/02 07:48:56;;;;;;;7.07;2.00;;;;;;;;;;5074261;28;20051;-83
2023/08/02 07:51:23;;;;;;;6.90;1.60;;;;;;;;;;5074042;28;20051;-84
2023/08/02 07:53:49;;;;;;;4.93;1.55;;;;;;;;;;5073960;28;20048;-83
2023/08/02 07:56:15;;;;;;;4.10;1.65;;;;;;;;;;5073973;28;20048;-82
2023/08/02 07:58:41;;;;;;;6.65;1.80;;;;;;;;;;5073860;28;20057;-82
2023/08/02 08:01:10;;;;;;;3.65;1.50;;;;;;;;;;5073485;28;20086;-81
2023/08/02 08:03:37;;;;;;;3.85;1.75;;;;;;;;;;5073052;28;20041;-81
2023/08/02 08:06:10;;;;;;;5.68;1.70;;;;;;;;;;5073365;28;20079;-81
2023/08/02 08:08:36;;;;;;;5.20;2.05;;;;;;;;;;5073383;28;20041;-80
2023/08/02 08:11:03;;;;;;;4.43;2.65;;;;;;;;;;5073375;28;20048;-81
2023/08/02 08:13:29;;;;;;;6.05;2.05;;;;;;;;;;5072194;28;20374;-80
2023/08/02 08:15:55;;;;;;;6.85;3.10;;;;;;;;;;5073467;28;20080;-81
2023/08/02 08:18:21;;;;;;;7.70;3.70;;;;;;;;;;5072366;28;20053;-82
2023/08/02 08:20:47;;;;;;;7.28;3.38;;;;;;;;;;5106193;28;20110;-82
2023/08/02 08:23:13;;;;;;;9.25;3.60;;;;;;;;;;5073655;28;20056;-81
2023/08/02 08:25:39;;;;;;;4.50;3.17;;;;;;;;;;5073564;28;20045;-82
2023/08/02 08:28:06;;;;;;;7.07;3.53;;;;;;;;;;5073543;28;20040;-82
2023/08/02 08:30:32;;;;;;;6.30;3.40;;;;;;;;;;5072732;28;20051;-83
2023/08/02 08:32:58;;;;;;;5.18;3.58;;;;;;;;;;5072219;28;20060;-82
2023/08/02 08:35:24;;;;;;;5.28;3.55;;;;;;;;;;5073068;28;20045;-83
2023/08/02 08:37:52;;;;;;;6.50;3.35;;;;;;;;;;5055740;28;20056;-82
2023/08/02 08:40:19;;;;;;;8.10;3.90;;;;;;;;;;5072112;28;20059;-83
2023/08/02 08:42:53;;;;;;;5.97;3.38;;;;;;;;;;5108141;28;20056;-83
2023/08/02 08:45:20;;;;;;;7.65;3.60;;;;;;;;;;5076975;28;20049;-83
2023/08/02 08:47:46;;;;;;;5.60;3.67;;;;;;;;;;5075919;28;20059;-84
2023/08/02 08:50:12;;;;;;;9.52;3.67;;;;;;;;;;5075700;28;20048;-84
2023/08/02 08:52:40;;;;;;;5.28;2.28;;;;;;;;;;5077415;28;20090;-84
2023/08/02 08:55:08;;;;;;;6.18;3.22;;;;;;;;;;5077215;28;20052;-84
2023/08/02 08:57:35;;;;;;;7.57;2.97;;;;;;;;;;5110607;28;20063;-85
2023/08/02 09:00:01;;;;;;;8.02;3.47;;;;;;;;;;5077740;28;20050;-87
2023/08/02 09:02:27;;;;;;;7.65;3.33;;;;;;;;;;5058748;28;20082;-88
2023/08/02 09:04:54;;;;;;;6.22;3.33;;;;;;;;;;5076454;28;20052;-86
2023/08/02 09:07:20;;;;;;;5.50;3.40;;;;;;;;;;5076620;28;20051;-85
2023/08/02 09:09:46;;;;;;;3.85;3.42;;;;;;;;;;5075358;28;20041;-85
2023/08/02 09:12:12;;;;;;;7.47;3.75;;;;;;;;;;5076262;28;20100;-82
2023/08/02 09:14:39;;;;;;;7.47;3.53;;;;;;;;;;5075376;28;20052;-80
2023/08/02 09:17:05;;;;;;;9.68;4.32;;;;;;;;;;5076293;28;20040;-80
2023/08/02 09:19:33;;;;;;;4.95;2.15;;;;;;;;;;5076264;28;20044;-79
2023/08/02 09:22:07;;;;;;;2.10;1.90;;;;;;;;;;5076242;28;20056;-80
2023/08/02 09:24:35;;;;;;;7.57;2.60;;;;;;;;;;5076123;28;20141;-80
2023/08/02 09:27:01;;;;;;;3.80;2.22;;;;;;;;;;5075063;28;20543;-80
2023/08/02 09:29:42;;;;;;;3.30;2.60;;;;;;;;;;5076333;28;20409;-80
2023/08/02 09:32:08;;;;;;;3.08;2.72;;;;;;;;;;5075076;28;20057;-79
2023/08/02 09:34:47;;;;;;;3.88;2.63;;;;;;;;;;5074771;28;20477;-78
2023/08/02 09:37:14;;;;;;;3.03;2.58;;;;;;;;;;5076096;28;20408;-79
2023/08/02 09:39:40;;;;;;;3.88;3.40;;;;;;;;;;5075884;28;20048;-79
2023/08/02 09:42:13;;;;;;;3.63;3.25;;;;;;;;;;5075792;28;20095;-79
2023/08/02 09:44:42;;;;;;;4.03;2.28;;;;;;;;;;5073816;28;20045;-79
2023/08/02 09:47:12;;;;;;;3.33;2.15;;;;;;;;;;5075374;28;20041;-80
2023/08/02 09:49:38;;;;;;;2.35;2.03;;;;;;;;;;5075360;28;20040;-79
2023/08/02 09:52:05;;;;;;;3.67;2.25;;;;;;;;;;5075713;28;20056;-78
2023/08/02 09:54:31;;;;;;;2.60;2.30;;;;;;;;;;5075505;28;20507;-79
2023/08/02 09:56:57;;;;;;;4.50;2.78;;;;;;;;;;5075657;28;20477;-79
2023/08/02 09:59:26;;;;;;;3.17;2.25;;;;;;;;;;5074471;28;20094;-79
2023/08/02 10:01:52;;;;;;;2.28;2.05;;;;;;;;;;5074936;28;20048;-80
2023/08/02 10:04:20;;;;;;;2.85;1.90;;;;;;;;;;5075454;28;20048;-79
2023/08/02 10:07:02;;;;;;;2.28;1.98;;;;;;;;;;5074406;28;20423;-79
2023/08/02 10:09:30;;;;;;;1.83;1.27;;;;;;;;;;5075557;28;20101;-80
2023/08/02 10:12:09;;;;;;;1.23;1.13;;;;;;;;;;5075688;28;20048;-80
2023/08/02 10:14:36;;;;;;;1.30;1.10;;;;;;;;;;5057521;28;20127;-81
2023/08/02 10:17:02;;;;;;;1.52;1.35;;;;;;;;;;5074512;28;20033;-81
2023/08/02 10:19:34;;;;;;;2.20;1.17;;;;;;;;;;5073254;28;20086;-83
2023/08/02 10:22:00;;;;;;;1.20;0.85;;;;;;;;;;5074617;28;20150;-83
2023/08/02 10:24:27;;;;;;;2.08;0.70;;;;;;;;;;5074800;28;20048;-82
2023/08/02 10:27:02;;;;;;;0.77;0.60;;;;;;;;;;5074888;28;20170;-83
2023/08/02 10:29:29;;;;;;;1.38;0.70;;;;;;;;;;5074280;28;20561;-83
2023/08/02 10:31:55;;;;;;;2.08;0.45;;;;;;;;;;5073699;28;20044;-83
2023/08/02 10:34:36;;;;;;;0.70;0.40;;;;;;;;;;5074913;28;20049;-83
2023/08/02 10:37:03;;;;;;;0.60;0.38;;;;;;;;;;5073696;28;20484;-84
2023/08/02 10:39:59;;;;;;;1.30;0.47;;;;;;;;;;5057326;28;20056;-84
2023/08/02 10:42:26;;;;;;;1.25;0.40;;;;;;;;;;5048919;28;20060;-84
2023/08/02 10:44:55;;;;;;;1.35;0.40;;;;;;;;;;5073893;28;20048;-85
2023/08/02 10:47:31;;;;;;;0.65;0.50;;;;;;;;;;5074048;28;20049;-85
2023/08/02 10:49:58;;;;;;;0.50;0.40;;;;;;;;;;5074208;28;20048;-84
2023/08/02 10:52:24;;;;;;;1.30;0.30;;;;;;;;;;5057305;28;20052;-85
2023/08/02 10:55:09;;;;;;;0.50;0.20;;;;;;;;;;5057518;28;20044;-83
2023/08/02 10:57:35;;;;;;;;;;;;;;;;;;5073201;28;20052;-82
2023/08/02 11:00:13;;;;;;;0.43;0.30;;;;;;;;;;5072991;28;19921;-80
2023/08/02 11:02:47;;;;;;;0.50;0.20;;;;;;;;;;5073048;28;20040;-82
2023/08/02 11:05:14;;;;;;;0.43;0.28;;;;;;;;;;5073366;28;20052;-82
2023/08/02 11:07:41;;;;;;;2.13;0.30;;;;;;;;;;5073730;28;20098;-86
2023/08/02 11:10:07;;;;;;;0.80;0.22;;;;;;;;;;5073243;28;20044;-83
2023/08/02 11:12:34;;;;;;;0.40;0.20;;;;;;;;;;5072847;28;20545;-84
2023/08/02 11:15:01;;;;;;;0.30;0.20;;;;;;;;;;5056725;28;20045;-83
2023/08/02 11:17:27;;;;;;;0.22;0.15;;;;;;;;;;5073226;28;20045;-83
2023/08/02 11:19:54;;;;;;;0.98;0.38;;;;;;;;;;5072823;28;20044;-85
2023/08/02 11:22:20;;;;;;;0.32;0.20;;;;;;;;;;5096400;28;20079;-85
2023/08/02 11:24:50;;;;;;;0.30;0.20;;;;;;;;;;5072774;28;20061;-86
2023/08/02 11:27:21;;;;;;;0.30;0.20;;;;;;;;;;5073350;28;20043;-86
2023/08/02 11:30:19;;;;;;;0.40;0.30;;;;;;;;;;5073669;28;20091;-87
2023/08/02 11:32:46;;;;;;;0.47;0.20;;;;;;;;;;5010018;28;20064;-87
2023/08/02 11:35:19;;;;;;;0.50;0.30;;;;;;;;;;5073581;28;20044;-87
2023/08/02 11:37:45;;;;;;;1.33;0.30;;;;;;;;;;5056983;28;20091;-87
2023/08/02 11:40:11;;;;;;;0.60;0.30;;;;;;;;;;5073979;28;20036;-86
2023/08/02 11:42:47;;;;;;;0.52;0.30;;;;;;;;;;5073964;28;20045;-88
2023/08/02 11:45:13;;;;;;;0.30;0.30;;;;;;;;;;5073661;28;20436;-88
2023/08/02 11:47:40;;;;;;;0.45;0.30;;;;;;;;;;5075223;28;20115;-87
2023/08/02 11:50:06;;;;;;;0.60;0.30;;;;;;;;;;5073126;28;20527;-88
2023/08/02 11:52:33;;;;;;;1.20;0.30;;;;;;;;;;5073269;28;20105;-89
2023/08/02 11:55:00;;;;;;;0.70;0.50;;;;;;;;;;5073782;28;20056;-88
2023/08/02 11:57:26;;;;;;;0.60;0.60;;;;;;;;;;5074034;28;20100;-89
2023/08/02 11:59:56;;;;;;;0.63;0.63;;;;;;;;;;5073991;28;20438;-88
2023/08/02 12:02:33;;;;;;;0.70;0.70;;;;;;;;;;5073384;28;20526;-90
2023/08/02 12:05:05;;;;;;;1.95;1.13;;;;;;;;;;5073569;28;20052;-89
2023/08/02 12:07:32;;;;;;;1.25;1.20;;;;;;;;;;5073000;28;20052;-89
2023/08/02 12:09:58;;;;;;;1.30;1.20;;;;;;;;;;5073030;28;20047;-90
2023/08/02 12:12:35;;;;;;;2.00;1.90;;;;;;;;;;5073458;28;20123;-89
2023/08/02 12:15:11;;;;;;;1.77;1.52;;;;;;;;;;5072886;28;20147;-89
2023/08/02 12:17:37;;;;;;;1.55;1.45;;;;;;;;;;5075158;28;20052;-88
2023/08/02 12:20:06;;;;;;;1.48;1.35;;;;;;;;;;5076871;28;20377;-89
2023/08/02 12:22:47;;;;;;;1.20;1.20;;;;;;;;;;5078768;28;20173;-89
2023/08/02 12:25:13;;;;;;;1.40;1.35;;;;;;;;;;5077981;28;20082;-89
2023/08/02 12:27:39;;;;;;;2.15;1.45;;;;;;;;;;5060236;28;20063;-89
2023/08/02 12:30:15;;;;;;;0.98;0.90;;;;;;;;;;5060278;28;20550;-89
2023/08/02 12:32:41;;;;;;;1.67;0.90;;;;;;;;;;5077084;28;20411;-89
2023/08/02 12:35:09;;;;;;;1.10;1.10;;;;;;;;;;5061105;28;20040;-89
2023/08/02 12:37:35;;;;;;;1.00;1.00;;;;;;;;;;5078881;28;20136;-89
2023/08/02 12:40:02;;;;;;;1.00;1.00;;;;;;;;;;5077724;28;20040;-89
2023/08/02 12:42:28;;;;;;;1.20;1.20;;;;;;;;;;5076141;28;20048;-89
2023/08/02 12:44:54;;;;;;;1.67;1.58;;;;;;;;;;5076856;28;20062;-90
2023/08/02 12:47:20;;;;;;;1.25;1.25;;;;;;;;;;5060037;28;20063;-89
2023/08/02 12:49:46;;;;;;;1.15;1.15;;;;;;;;;;5076779;28;20048;-88
2023/08/02 12:52:12;;;;;;;0.77;0.77;;;;;;;;;;5076054;28;20060;-88
2023/08/02 12:54:38;;;;;;;1.60;1.50;;;;;;;;;;5043163;28;20392;-88
2023/08/02 12:57:05;;;;;;;2.05;1.50;;;;;;;;;;5077301;28;20157;-88
2023/08/02 12:59:31;;;;;;;1.38;1.27;;;;;;;;;;5077151;28;20049;-88
2023/08/02 13:01:57;;;;;;;1.83;1.73;;;;;;;;;;5076322;28;20366;-88
2023/08/02 13:04:24;;;;;;;1.80;1.70;;;;;;;;;;5075928;28;20055;-89
2023/08/02 13:06:50;;;;;;;1.25;1.25;;;;;;;;;;5055947;28;20076;-88
2023/08/02 13:09:16;;;;;;;1.48;1.25;;;;;;;;;;5039882;28;20041;-89
2023/08/02 13:11:42;;;;;;;1.77;0.98;;;;;;;;;;5068460;28;20041;-87
2023/08/02 13:14:08;;;;;;;0.90;0.73;;;;;;;;;;5077027;28;20087;-89
2023/08/02 13:16:34;;;;;;;1.70;0.55;;;;;;;;;;5040612;28;20059;-88
2023/08/02 13:19:00;;;;;;;1.08;0.90;;;;;;;;;;5076379;28;20036;-88
2023/08/02 13:21:26;;;;;;;0.90;0.90;;;;;;;;;;5077727;28;20089;-88
2023/08/02 13:23:52;;;;;;;1.35;1.25;;;;;;;;;;5076731;28;20484;-89
2023/08/02 13:26:19;;;;;;;1.38;1.05;;;;;;;;;;5073557;28;20049;-88
2023/08/02 13:28:46;;;;;;;1.10;1.00;;;;;;;;;;5075642;28;20055;-88
2023/08/02 13:31:13;;;;;;;1.30;1.20;;;;;;;;;;5059365;28;20048;-87
2023/08/02 13:33:41;;;;;;;0.85;0.85;;;;;;;;;;5075575;28;20169;-88
2023/08/02 13:36:08;;;;;;;1.20;1.10;;;;;;;;;;5059500;28;20051;-88
2023/08/02 13:38:34;;;;;;;1.60;1.23;;;;;;;;;;5059274;28;20059;-87
2023/08/02 13:41:00;;;;;;;0.95;0.95;;;;;;;;;;5076683;28;20481;-88
2023/08/02 13:43:26;;;;;;;1.58;1.48;;;;;;;;;;5075774;28;20052;-88
2023/08/02 13:45:52;;;;;;;1.27;1.27;;;;;;;;;;5076651;28;20095;-87
2023/08/02 13:48:19;;;;;;;1.80;0.93;;;;;;;;;;5076026;28;20090;-87
2023/08/02 13:50:45;;;;;;;1.17;1.13;;;;;;;;;;5059308;28;20044;-88
2023/08/02 13:53:11;;;;;;;1.70;1.60;;;;;;;;;;5075505;28;20048;-88
2023/08/02 13:55:37;;;;;;;1.30;1.30;;;;;;;;;;5074887;28;20044;-88
2023/08/02 13:58:06;;;;;;;1.67;1.50;;;;;;;;;;5075656;28;20108;-89
2023/08/02 14:00:32;;;;;;;1.83;1.73;;;;;;;;;;5059193;28;20040;-87
2023/08/02 14:02:58;;;;;;;1.70;1.40;;;;;;;;;;5075149;28;20052;-87
2023/08/02 14:05:24;;;;;;;1.08;0.77;;;;;;;;;;5075790;28;20369;-88
2023/08/02 14:07:50;;;;;;;0.95;0.90;;;;;;;;;;5075676;28;20137;-88
2023/08/02 14:10:16;;;;;;;0.90;0.90;;;;;;;;;;5075507;28;20106;-88
2023/08/02 14:12:42;;;;;;;1.02;0.93;;;;;;;;;;5075607;28;20048;-88
2023/08/02 14:15:08;;;;;;;1.85;0.70;;;;;;;;;;5075614;28;20127;-89
2023/08/02 14:17:35;;;;;;;0.70;0.70;;;;;;;;;;5074099;28;20037;-89
2023/08/02 14:20:01;;;;;;;1.23;0.90;;;;;;;;;;5075152;28;20404;-89
2023/08/02 14:22:29;;;;;;;1.13;0.40;;;;;;;;;;5058324;28;20468;-89
2023/08/02 14:24:55;;;;;;;1.00;0.40;;;;;;;;;;5059618;28;20060;-90
2023/08/02 14:27:21;;;;;;;2.22;0.60;;;;;;;;;;5075149;28;20431;-89
2023/08/02 14:29:47;;;;;;;0.80;0.70;;;;;;;;;;5059755;28;20040;-90
2023/08/02 14:32:14;;;;;;;1.60;0.75;;;;;;;;;;5057564;28;20122;-90
2023/08/02 14:34:40;;;;;;;1.80;1.00;;;;;;;;;;5074490;28;20052;-90
2023/08/02 14:37:06;;;;;;;1.33;0.60;;;;;;;;;;5058071;28;20055;-89
2023/08/02 14:39:32;;;;;;;1.38;0.60;;;;;;;;;;5075297;28;20109;-89
2023/08/02 14:41:58;;;;;;;0.73;0.65;;;;;;;;;;5074539;28;20049;-90